createdAt,value
2023-11-29T00:01:20.248Z,16.87
2023-11-29T00:03:54.452Z,17.70
2023-11-29T00:06:27.396Z,16.73
2023-11-29T00:09:03.391Z,16.92
2023-11-29T00:11:38.390Z,15.40
2023-11-29T00:14:11.481Z,14.65
2023-11-29T00:16:47.227Z,16.55
2023-11-29T00:19:21.435Z,15.70
2023-11-29T00:21:54.381Z,16.85
2023-11-29T00:24:29.952Z,15.30
2023-11-29T00:27:05.628Z,16.70
2023-11-29T00:29:39.024Z,14.52
2023-11-29T00:32:13.508Z,16.40
2023-11-29T00:34:46.349Z,15.50
2023-11-29T00:37:19.204Z,15.45
2023-11-29T00:39:56.055Z,15.43
2023-11-29T00:42:30.487Z,14.32
2023-11-29T00:45:03.301Z,15.07
2023-11-29T00:47:38.720Z,14.48
2023-11-29T00:50:13.739Z,13.25
2023-11-29T00:52:46.287Z,14.80
2023-11-29T00:55:26.036Z,15.43
2023-11-29T00:58:04.350Z,15.50
2023-11-29T01:00:37.378Z,16.40
2023-11-29T01:03:10.618Z,16.38
2023-11-29T01:05:43.399Z,16.63
2023-11-29T01:08:16.320Z,16.25
2023-11-29T01:10:51.851Z,17.15
2023-11-29T01:13:26.304Z,16.63
2023-11-29T01:15:59.278Z,17.33
2023-11-29T01:18:34.519Z,16.85
2023-11-29T01:21:07.806Z,17.67
2023-11-29T01:23:42.377Z,17.63
2023-11-29T01:26:17.996Z,15.20
2023-11-29T01:28:50.283Z,14.75
2023-11-29T01:31:27.667Z,14.88
2023-11-29T01:34:02.504Z,13.85
2023-11-29T01:36:35.259Z,14.85
2023-11-29T01:39:15.096Z,16.70
2023-11-29T01:41:47.467Z,15.48
2023-11-29T01:44:22.940Z,13.67
2023-11-29T01:46:55.380Z,14.10
2023-11-29T01:49:28.181Z,13.82
2023-11-29T01:52:02.349Z,13.83
2023-11-29T01:54:35.260Z,14.38
2023-11-29T01:57:09.353Z,13.43
2023-11-29T01:59:44.893Z,15.30
2023-11-29T02:02:19.386Z,13.82
2023-11-29T02:04:52.233Z,14.40
2023-11-29T02:07:26.303Z,12.30
2023-11-29T02:09:58.297Z,13.40
2023-11-29T02:12:31.401Z,13.03
2023-11-29T02:15:07.470Z,13.30
2023-11-29T02:17:40.360Z,11.85
2023-11-29T02:20:15.088Z,12.38
2023-11-29T02:23:08.361Z,11.90
2023-11-29T02:25:37.409Z,11.77
2023-11-29T02:28:12.863Z,11.38
2023-11-29T02:30:47.301Z,10.10
2023-11-29T02:33:20.336Z,10.90
2023-11-29T02:35:53.413Z,11.20
2023-11-29T02:38:27.251Z,10.13
2023-11-29T02:41:01.334Z,10.48
2023-11-29T02:43:38.957Z,9.40
2023-11-29T02:46:13.264Z,12.47
2023-11-29T02:48:47.491Z,11.90
2023-11-29T02:51:20.611Z,10.15
2023-11-29T02:53:53.247Z,10.55
2023-11-29T02:56:27.630Z,10.27
2023-11-29T02:59:02.905Z,9.77
2023-11-29T03:01:37.343Z,9.37
2023-11-29T03:04:12.294Z,9.15
2023-11-29T03:06:46.763Z,10.18
2023-11-29T03:09:19.276Z,9.70
2023-11-29T03:11:53.309Z,9.70
2023-11-29T03:14:29.617Z,6.65
2023-11-29T03:17:02.307Z,8.13
2023-11-29T03:19:35.242Z,6.67
2023-11-29T03:22:09.419Z,6.35
2023-11-29T03:24:42.251Z,7.35
2023-11-29T03:27:16.348Z,5.80
2023-11-29T03:29:51.952Z,5.93
2023-11-29T03:32:27.689Z,6.10
2023-11-29T03:35:02.255Z,6.10
2023-11-29T03:37:36.312Z,6.25
2023-11-29T03:40:12.376Z,6.17
2023-11-29T03:42:47.300Z,6.13
2023-11-29T03:45:23.874Z,6.85
2023-11-29T03:47:58.355Z,5.90
2023-11-29T03:50:31.307Z,5.65
2023-11-29T03:53:04.247Z,6.22
2023-11-29T03:55:38.252Z,6.10
2023-11-29T03:58:12.283Z,5.65
2023-11-29T04:00:47.946Z,5.90
2023-11-29T04:03:22.431Z,5.30
2023-11-29T04:05:55.356Z,6.30
2023-11-29T04:08:28.386Z,6.18
2023-11-29T04:11:01.248Z,6.63
2023-11-29T04:13:35.349Z,6.30
2023-11-29T04:16:11.941Z,5.63
2023-11-29T04:18:46.342Z,5.70
2023-11-29T04:21:28.545Z,6.90
2023-11-29T04:24:03.378Z,6.78
2023-11-29T04:26:37.368Z,6.20
2023-11-29T04:29:11.672Z,5.70
2023-11-29T04:31:48.971Z,6.28
2023-11-29T04:34:32.991Z,6.25
2023-11-29T04:37:09.275Z,6.65
2023-11-29T04:39:42.965Z,5.60
2023-11-29T04:42:16.265Z,6.30
2023-11-29T04:44:50.567Z,9.40
2023-11-29T04:47:26.573Z,10.80
2023-11-29T04:49:59.323Z,9.50
2023-11-29T04:52:32.312Z,13.18
2023-11-29T04:55:08.550Z,16.55
2023-11-29T04:57:41.300Z,9.60
2023-11-29T05:00:17.339Z,8.70
2023-11-29T05:02:53.299Z,7.45
2023-11-29T05:07:58.322Z,6.90
2023-11-29T05:10:31.332Z,7.05
2023-11-29T05:13:05.234Z,6.65
2023-11-29T05:15:40.542Z,16.60
2023-11-29T05:18:16.072Z,13.90
2023-11-29T05:20:50.348Z,16.40
2023-11-29T05:23:23.348Z,9.40
2023-11-29T05:25:56.371Z,9.97
2023-11-29T05:28:29.822Z,10.60
2023-11-29T05:31:04.893Z,9.60
2023-11-29T05:33:42.001Z,9.88
2023-11-29T05:36:17.164Z,9.77
2023-11-29T05:38:51.348Z,11.15
2023-11-29T05:41:27.488Z,8.90
2023-11-29T05:46:34.104Z,7.67
2023-11-29T05:49:12.085Z,8.70
2023-11-29T05:51:45.382Z,8.30
2023-11-29T05:54:18.277Z,7.20
2023-11-29T05:56:52.390Z,7.60
2023-11-29T05:59:25.367Z,6.85
2023-11-29T06:02:00.121Z,6.68
2023-11-29T06:04:37.185Z,7.25
2023-11-29T06:07:09.279Z,7.10
2023-11-29T06:09:43.324Z,8.15
2023-11-29T06:12:17.662Z,8.23
2023-11-29T06:14:50.445Z,9.45
2023-11-29T06:17:27.812Z,12.98
2023-11-29T06:20:10.947Z,9.35
2023-11-29T06:22:45.327Z,8.23
2023-11-29T06:25:18.626Z,7.97
2023-11-29T06:27:51.551Z,7.35
2023-11-29T06:30:24.405Z,8.40
2023-11-29T06:32:57.428Z,7.90
2023-11-29T06:35:32.995Z,7.50
2023-11-29T06:38:08.576Z,7.05
2023-11-29T06:40:47.269Z,6.80
2023-11-29T06:43:23.375Z,7.25
2023-11-29T06:45:56.464Z,7.35
2023-11-29T06:48:29.320Z,7.18
2023-11-29T06:51:05.104Z,6.80
2023-11-29T06:53:39.450Z,6.55
2023-11-29T06:56:13.916Z,6.15
2023-11-29T06:58:46.304Z,6.65
2023-11-29T07:01:18.471Z,7.80
2023-11-29T07:03:51.520Z,8.70
2023-11-29T07:06:27.793Z,9.20
2023-11-29T07:09:07.381Z,10.13
2023-11-29T07:11:40.648Z,11.20
2023-11-29T07:14:13.443Z,11.10
2023-11-29T07:16:47.317Z,11.30
2023-11-29T07:19:21.732Z,11.82
2023-11-29T07:21:57.547Z,12.10
2023-11-29T07:24:34.924Z,10.43
2023-11-29T07:27:11.106Z,12.52
2023-11-29T07:32:19.009Z,9.98
2023-11-29T07:34:54.480Z,11.10
2023-11-29T07:37:30.494Z,11.55
2023-11-29T07:42:37.554Z,10.45
2023-11-29T07:45:13.326Z,11.53
2023-11-29T07:47:47.829Z,11.20
2023-11-29T07:50:22.149Z,11.40
2023-11-29T07:52:59.569Z,11.05
2023-11-29T07:55:35.633Z,12.00
2023-11-29T08:00:54.453Z,11.70
2023-11-29T08:03:28.325Z,11.70
2023-11-29T08:06:05.341Z,12.47
2023-11-29T08:08:42.010Z,11.17
2023-11-29T08:11:18.154Z,11.13
2023-11-29T08:16:25.825Z,10.85
2023-11-29T08:19:01.405Z,12.32
2023-11-29T08:21:36.542Z,12.00
2023-11-29T08:24:14.441Z,13.10
2023-11-29T08:29:22.458Z,12.00
2023-11-29T08:31:55.971Z,11.60
2023-11-29T08:34:31.329Z,10.33
2023-11-29T08:37:05.079Z,12.70
2023-11-29T08:39:43.538Z,13.67
2023-11-29T08:42:17.804Z,14.15
2023-11-29T08:44:53.383Z,15.30
2023-11-29T08:47:27.706Z,14.75
2023-11-29T08:50:01.832Z,15.48
2023-11-29T08:52:38.345Z,16.35
2023-11-29T08:55:14.926Z,13.30
2023-11-29T08:57:54.427Z,13.10
2023-11-29T09:00:28.784Z,13.70
2023-11-29T09:03:05.261Z,11.40
2023-11-29T09:05:41.765Z,9.98
2023-11-29T09:08:16.222Z,11.30
2023-11-29T09:10:53.956Z,13.00
2023-11-29T09:13:29.020Z,13.65
2023-11-29T09:16:01.614Z,10.47
2023-11-29T09:18:38.066Z,10.47
2023-11-29T09:21:17.991Z,10.15
2023-11-29T09:23:55.131Z,10.70
2023-11-29T09:26:33.457Z,12.18
2023-11-29T09:29:07.012Z,11.25
2023-11-29T09:34:18.746Z,9.40
2023-11-29T09:36:55.430Z,8.90
2023-11-29T09:39:29.670Z,10.98
2023-11-29T09:42:08.139Z,11.30
2023-11-29T09:44:45.418Z,11.90
2023-11-29T09:47:19.823Z,11.97
2023-11-29T09:49:53.993Z,12.73
2023-11-29T09:52:31.308Z,12.25
2023-11-29T09:55:08.105Z,12.75
2023-11-29T09:57:45.843Z,15.07
2023-11-29T10:00:23.319Z,14.65
2023-11-29T10:02:59.257Z,12.68
2023-11-29T10:05:34.251Z,12.53
2023-11-29T10:08:09.547Z,12.85
2023-11-29T10:10:43.707Z,13.00
2023-11-29T10:13:21.862Z,14.20
2023-11-29T10:15:55.754Z,13.95
2023-11-29T10:18:29.269Z,12.70
2023-11-29T10:21:09.373Z,13.80
2023-11-29T10:23:46.527Z,13.73
2023-11-29T10:26:24.091Z,15.37
2023-11-29T10:29:00.651Z,20.33
2023-11-29T10:31:34.715Z,21.53
2023-11-29T10:34:08.692Z,15.18
2023-11-29T10:36:43.938Z,15.20
2023-11-29T10:39:24.931Z,14.30
2023-11-29T10:42:03.535Z,12.85
2023-11-29T10:44:41.664Z,12.20
2023-11-29T10:47:19.695Z,14.03
2023-11-29T10:49:59.297Z,12.90
2023-11-29T10:52:34.796Z,16.30
2023-11-29T10:55:11.340Z,20.77
2023-11-29T10:57:48.530Z,17.20
2023-11-29T11:00:27.236Z,15.30
2023-11-29T11:03:03.236Z,11.55
2023-11-29T11:05:38.569Z,13.15
2023-11-29T11:08:13.386Z,13.90
2023-11-29T11:10:48.237Z,12.88
2023-11-29T11:13:38.337Z,11.95
2023-11-29T11:16:16.189Z,17.30
2023-11-29T11:18:52.910Z,11.65
2023-11-29T11:21:34.082Z,11.07
2023-11-29T11:24:11.495Z,10.85
2023-11-29T11:27:04.577Z,11.63
2023-11-29T11:29:38.400Z,11.85
2023-11-29T11:32:15.808Z,12.00
2023-11-29T11:34:51.348Z,10.52
2023-11-29T11:37:25.460Z,12.60
2023-11-29T11:40:02.541Z,11.98
2023-11-29T11:42:36.648Z,10.70
2023-11-29T11:45:14.502Z,11.68
2023-11-29T11:47:47.115Z,11.35
2023-11-29T11:50:26.418Z,12.40
2023-11-29T11:53:01.491Z,11.57
2023-11-29T11:55:36.689Z,11.15
2023-11-29T11:58:12.429Z,10.37
2023-11-29T12:00:46.389Z,12.20
2023-11-29T12:03:20.383Z,11.82
2023-11-29T12:05:59.860Z,10.73
2023-11-29T12:08:33.845Z,10.57
2023-11-29T12:11:11.441Z,11.97
2023-11-29T12:13:45.536Z,10.70
2023-11-29T12:16:20.115Z,10.10
2023-11-29T12:18:55.251Z,11.80
2023-11-29T12:21:33.474Z,11.75
2023-11-29T12:24:10.456Z,9.80
2023-11-29T12:26:47.620Z,11.85
2023-11-29T12:29:21.142Z,10.60
2023-11-29T12:31:57.407Z,10.05
2023-11-29T12:34:31.380Z,11.85
2023-11-29T12:37:10.205Z,12.25
2023-11-29T12:39:46.442Z,10.70
2023-11-29T12:42:20.027Z,10.60
2023-11-29T12:44:55.092Z,11.27
2023-11-29T12:47:32.743Z,11.80
2023-11-29T12:50:05.916Z,11.15
2023-11-29T12:52:44.112Z,9.70
2023-11-29T12:55:17.351Z,11.35
2023-11-29T12:57:51.448Z,11.80
2023-11-29T13:00:26.397Z,9.05
2023-11-29T13:03:00.741Z,10.15
2023-11-29T13:05:38.897Z,12.07
2023-11-29T13:08:17.705Z,11.55
2023-11-29T13:10:53.802Z,11.23
2023-11-29T13:16:02.409Z,12.25
2023-11-29T13:18:41.017Z,12.13
2023-11-29T13:21:16.380Z,10.13
2023-11-29T13:23:53.915Z,9.47
2023-11-29T13:26:27.355Z,11.00
2023-11-29T13:29:01.796Z,12.17
2023-11-29T13:31:37.570Z,10.87
2023-11-29T13:34:12.985Z,12.50
2023-11-29T13:36:49.384Z,13.10
2023-11-29T13:39:27.187Z,10.88
2023-11-29T13:42:01.735Z,12.50
2023-11-29T13:44:37.458Z,13.05
2023-11-29T13:47:14.879Z,12.82
2023-11-29T13:49:51.220Z,12.15
2023-11-29T13:52:27.224Z,11.82
2023-11-29T13:55:07.119Z,12.50
2023-11-29T13:57:42.757Z,12.00
2023-11-29T14:00:19.096Z,12.43
2023-11-29T14:02:54.360Z,13.20
2023-11-29T14:05:28.972Z,12.50
2023-11-29T14:08:04.117Z,13.50
2023-11-29T14:10:42.442Z,11.80
2023-11-29T14:13:19.112Z,11.55
2023-11-29T14:15:54.173Z,12.03
2023-11-29T14:18:29.310Z,11.45
2023-11-29T14:21:03.581Z,14.23
2023-11-29T14:23:38.934Z,12.10
2023-11-29T14:26:17.434Z,12.05
2023-11-29T14:28:52.029Z,11.50
2023-11-29T14:31:27.056Z,12.10
2023-11-29T14:34:01.997Z,11.97
2023-11-29T14:36:35.894Z,11.10
2023-11-29T14:39:11.862Z,11.20
2023-11-29T14:41:47.836Z,11.07
2023-11-29T14:44:23.941Z,11.53
2023-11-29T14:49:35.773Z,11.98
2023-11-29T14:52:11.106Z,13.55
2023-11-29T14:54:45.717Z,11.80
2023-11-29T14:57:23.184Z,12.48
2023-11-29T14:59:58.272Z,11.15
2023-11-29T15:02:32.665Z,12.95
2023-11-29T15:05:05.836Z,12.75
2023-11-29T15:07:42.022Z,12.88
2023-11-29T15:10:17.187Z,11.98
2023-11-29T15:12:54.799Z,12.98
2023-11-29T15:15:29.938Z,12.30
2023-11-29T15:18:05.457Z,12.65
2023-11-29T15:20:39.081Z,13.75
2023-11-29T15:23:13.801Z,15.02
2023-11-29T15:25:46.781Z,13.15
2023-11-29T15:28:24.633Z,14.20
2023-11-29T15:30:57.907Z,12.93
2023-11-29T15:33:32.687Z,14.25
2023-11-29T15:36:05.781Z,13.38
2023-11-29T15:38:40.973Z,13.50
2023-11-29T15:41:16.592Z,12.45
2023-11-29T15:43:53.400Z,11.73
2023-11-29T15:46:27.208Z,13.57
2023-11-29T15:49:06.492Z,15.18
2023-11-29T15:51:39.885Z,15.10
2023-11-29T15:54:15.038Z,12.77
2023-11-29T15:56:49.941Z,15.03
2023-11-29T15:59:27.686Z,15.10
2023-11-29T16:02:02.056Z,14.30
2023-11-29T16:04:39.448Z,15.90
2023-11-29T16:07:12.487Z,15.18
2023-11-29T16:09:46.684Z,20.45
2023-11-29T16:12:22.307Z,16.87
2023-11-29T16:14:59.335Z,18.08
2023-11-29T16:17:35.004Z,19.00
2023-11-29T16:20:11.439Z,22.85
2023-11-29T16:22:44.660Z,22.27
2023-11-29T16:25:17.999Z,20.80
2023-11-29T16:27:52.384Z,15.60
2023-11-29T16:30:28.154Z,18.35
2023-11-29T16:33:02.569Z,14.93
2023-11-29T16:35:36.331Z,15.70
2023-11-29T16:38:09.835Z,13.70
2023-11-29T16:40:44.854Z,16.05
2023-11-29T16:43:19.665Z,14.88
2023-11-29T16:45:55.357Z,14.10
2023-11-29T16:48:29.707Z,14.93
2023-11-29T16:51:08.580Z,14.45
2023-11-29T16:53:42.286Z,14.17
2023-11-29T16:56:15.602Z,12.88
2023-11-29T16:58:49.005Z,12.80
2023-11-29T17:01:29.429Z,11.85
2023-11-29T17:04:02.961Z,12.45
2023-11-29T17:06:36.012Z,12.90
2023-11-29T17:09:11.747Z,14.10
2023-11-29T17:11:47.245Z,13.43
2023-11-29T17:14:21.586Z,14.40
2023-11-29T17:16:57.866Z,13.25
2023-11-29T17:19:30.978Z,13.40
2023-11-29T17:22:06.346Z,13.80
2023-11-29T17:24:40.908Z,12.20
2023-11-29T17:27:15.487Z,12.52
2023-11-29T17:29:49.610Z,12.45
2023-11-29T17:32:25.583Z,13.45
2023-11-29T17:34:58.773Z,15.10
2023-11-29T17:37:31.490Z,21.33
2023-11-29T17:40:05.923Z,17.75
2023-11-29T17:42:40.760Z,19.75
2023-11-29T17:45:14.652Z,21.40
2023-11-29T17:47:51.448Z,31.85
2023-11-29T17:50:26.747Z,28.27
2023-11-29T17:53:01.580Z,20.30
2023-11-29T17:55:35.493Z,22.25
2023-11-29T17:58:09.446Z,62.50
2023-11-29T18:00:42.745Z,32.53
2023-11-29T18:03:18.205Z,22.48
2023-11-29T18:05:52.566Z,22.80
2023-11-29T18:08:25.367Z,124.25
2023-11-29T18:10:59.137Z,224.95
2023-11-29T18:13:33.726Z,90.50
2023-11-29T18:16:07.078Z,29.95
2023-11-29T18:18:46.022Z,22.05
2023-11-29T18:21:24.563Z,24.20
2023-11-29T18:23:57.645Z,18.95
2023-11-29T18:26:30.631Z,20.60
2023-11-29T18:29:03.482Z,29.23
2023-11-29T18:31:36.670Z,18.40
2023-11-29T18:34:12.574Z,16.73
2023-11-29T18:36:45.718Z,24.70
2023-11-29T18:39:20.778Z,40.50
2023-11-29T18:41:55.963Z,20.13
2023-11-29T18:44:30.687Z,17.20
2023-11-29T18:47:04.398Z,17.20
2023-11-29T18:49:40.211Z,17.10
2023-11-29T18:52:14.959Z,17.37
2023-11-29T18:54:49.446Z,16.80
2023-11-29T18:57:22.479Z,17.67
2023-11-29T18:59:55.954Z,17.00
2023-11-29T19:02:30.597Z,19.75
2023-11-29T19:05:07.186Z,23.10
2023-11-29T19:07:41.579Z,21.50
2023-11-29T19:10:14.820Z,16.90
2023-11-29T19:12:47.461Z,14.77
2023-11-29T19:15:20.535Z,14.43
2023-11-29T19:17:53.665Z,15.75
2023-11-29T19:20:29.089Z,15.45
2023-11-29T19:23:04.564Z,15.05
2023-11-29T19:25:40.720Z,16.00
2023-11-29T19:28:13.856Z,14.98
2023-11-29T19:30:48.436Z,13.85
2023-11-29T19:33:22.018Z,15.52
2023-11-29T19:35:59.308Z,13.10
2023-11-29T19:38:33.608Z,14.95
2023-11-29T19:41:06.432Z,12.90
2023-11-29T19:43:39.447Z,12.55
2023-11-29T19:46:15.738Z,12.43
2023-11-29T19:48:48.581Z,11.30
2023-11-29T19:51:24.095Z,11.20
2023-11-29T19:53:59.514Z,12.67
2023-11-29T19:56:33.838Z,12.88
2023-11-29T19:59:09.571Z,16.40
2023-11-29T20:01:46.635Z,20.43
2023-11-29T20:04:19.837Z,19.20
2023-11-29T20:06:58.784Z,13.00
2023-11-29T20:09:32.967Z,10.35
2023-11-29T20:12:06.810Z,10.88
2023-11-29T20:14:46.565Z,10.15
2023-11-29T20:17:20.430Z,9.70
2023-11-29T20:19:58.982Z,12.00
2023-11-29T20:22:39.577Z,10.95
2023-11-29T20:25:13.566Z,10.30
2023-11-29T20:27:46.844Z,10.55
2023-11-29T20:30:20.382Z,11.25
2023-11-29T20:32:54.632Z,12.13
2023-11-29T20:35:38.063Z,10.77
2023-11-29T20:38:18.256Z,12.70
2023-11-29T20:40:53.136Z,11.77
2023-11-29T20:43:29.935Z,11.63
2023-11-29T20:46:04.530Z,10.82
2023-11-29T20:48:40.478Z,11.07
2023-11-29T20:51:15.076Z,10.85
2023-11-29T20:53:54.100Z,9.38
2023-11-29T20:56:28.817Z,10.75
2023-11-29T20:59:02.466Z,10.00
2023-11-29T21:01:37.123Z,11.05
2023-11-29T21:04:13.475Z,8.90
2023-11-29T21:06:50.229Z,10.77
2023-11-29T21:09:29.775Z,11.30
2023-11-29T21:12:05.123Z,10.68
2023-11-29T21:14:43.211Z,12.43
2023-11-29T21:17:18.843Z,10.68
2023-11-29T21:19:54.837Z,10.75
2023-11-29T21:22:28.868Z,10.40
2023-11-29T21:25:10.781Z,12.37
2023-11-29T21:27:47.870Z,10.05
2023-11-29T21:30:24.847Z,10.60
2023-11-29T21:33:00.303Z,12.10
2023-11-29T21:35:35.955Z,10.63
2023-11-29T21:38:12.297Z,13.00
2023-11-29T21:40:51.540Z,12.60
2023-11-29T21:43:26.103Z,11.40
2023-11-29T21:46:03.922Z,10.90
2023-11-29T21:48:40.496Z,9.85
2023-11-29T21:51:15.692Z,10.18
2023-11-29T21:53:52.410Z,10.75
2023-11-29T21:56:29.833Z,10.45
2023-11-29T21:59:02.990Z,10.68
2023-11-29T22:01:38.646Z,9.98
2023-11-29T22:04:15.858Z,11.05
2023-11-29T22:06:55.878Z,11.57
2023-11-29T22:09:32.541Z,10.90
2023-11-29T22:12:10.175Z,10.50
2023-11-29T22:14:48.522Z,10.55
2023-11-29T22:17:22.576Z,11.05
2023-11-29T22:19:56.257Z,12.40
2023-11-29T22:22:30.903Z,11.95
2023-11-29T22:25:07.962Z,10.50
2023-11-29T22:27:46.469Z,10.00
2023-11-29T22:30:20.793Z,11.20
2023-11-29T22:32:53.449Z,14.63
2023-11-29T22:35:27.025Z,12.65
2023-11-29T22:38:01.692Z,13.40
2023-11-29T22:40:34.648Z,10.40
2023-11-29T22:43:10.846Z,13.60
2023-11-29T22:48:19.801Z,11.07
2023-11-29T22:50:54.998Z,13.35
2023-11-29T22:53:31.633Z,11.30
2023-11-29T22:56:04.932Z,10.43
2023-11-29T22:58:42.765Z,9.38
2023-11-29T23:01:17.691Z,9.83
2023-11-29T23:03:50.746Z,9.45
2023-11-29T23:06:23.857Z,9.37
2023-11-29T23:08:58.371Z,9.60
2023-11-29T23:11:31.718Z,10.30
2023-11-29T23:14:07.950Z,11.30
2023-11-29T23:16:43.084Z,10.80
2023-11-29T23:19:20.246Z,10.82
2023-11-29T23:21:54.924Z,9.60
2023-11-29T23:24:33.798Z,10.70
2023-11-29T23:27:07.106Z,9.77
2023-11-29T23:29:42.195Z,11.48
2023-11-29T23:32:16.847Z,11.52
2023-11-29T23:34:51.695Z,11.50
2023-11-29T23:37:24.646Z,12.45
2023-11-29T23:39:57.870Z,15.10
2023-11-29T23:42:32.731Z,13.37
2023-11-29T23:45:11.219Z,14.65
2023-11-29T23:47:45.473Z,12.90
2023-11-29T23:50:19.284Z,12.10
2023-11-29T23:52:54.099Z,12.35
2023-11-29T23:55:29.182Z,11.65
2023-11-29T23:58:04.145Z,11.47
